createdAt,value
2022-10-17T00:02:13.695Z,18.65
2022-10-17T00:07:15.581Z,18.73
2022-10-17T00:12:17.462Z,18.81
2022-10-17T00:17:19.621Z,18.69
2022-10-17T00:22:21.568Z,18.82
2022-10-17T00:27:23.371Z,18.66
2022-10-17T00:32:25.536Z,18.66
2022-10-17T00:37:27.715Z,18.69
2022-10-17T00:42:30.666Z,18.78
2022-10-17T00:47:34.048Z,18.50
2022-10-17T00:52:36.385Z,17.95
2022-10-17T00:57:38.545Z,17.61
2022-10-17T01:02:40.545Z,17.56
2022-10-17T01:07:43.486Z,17.44
2022-10-17T01:13:16.222Z,17.10
2022-10-17T01:18:17.983Z,17.11
2022-10-17T01:23:25.601Z,16.93
2022-10-17T01:28:49.188Z,16.80
2022-10-17T01:34:26.596Z,16.77
2022-10-17T01:39:45.539Z,16.77
2022-10-17T01:45:10.435Z,16.75
2022-10-17T01:50:17.501Z,16.73
2022-10-17T01:55:22.954Z,16.66
2022-10-17T02:00:27.097Z,16.65
2022-10-17T02:05:33.386Z,16.62
2022-10-17T02:10:56.614Z,16.60
2022-10-17T02:16:36.057Z,16.56
2022-10-17T02:21:44.078Z,16.54
2022-10-17T02:26:57.007Z,16.48
2022-10-17T02:32:03.267Z,16.43
2022-10-17T02:37:07.711Z,16.41
2022-10-17T02:42:12.184Z,16.17
2022-10-17T02:47:27.522Z,16.29
2022-10-17T02:52:37.463Z,16.25
2022-10-17T02:57:43.283Z,16.24
2022-10-17T03:02:47.811Z,16.25
2022-10-17T03:07:50.056Z,16.29
2022-10-17T03:12:52.135Z,16.29
2022-10-17T03:17:55.961Z,16.24
2022-10-17T03:22:57.916Z,16.15
2022-10-17T03:28:01.631Z,16.03
2022-10-17T03:33:03.869Z,16.18
2022-10-17T03:38:06.121Z,15.93
2022-10-17T03:43:08.403Z,15.95
2022-10-17T03:48:10.314Z,15.93
2022-10-17T03:53:12.199Z,15.95
2022-10-17T03:58:14.647Z,15.82
2022-10-17T04:03:17.293Z,15.84
2022-10-17T04:08:19.819Z,15.82
2022-10-17T04:13:45.432Z,15.84
2022-10-17T04:18:47.404Z,15.82
2022-10-17T04:23:49.244Z,15.70
2022-10-17T04:29:04.737Z,15.81
2022-10-17T04:34:07.099Z,15.78
2022-10-17T04:39:09.402Z,15.77
2022-10-17T04:44:11.790Z,15.67
2022-10-17T04:49:17.901Z,15.79
2022-10-17T04:54:23.482Z,15.77
2022-10-17T04:59:34.646Z,15.79
2022-10-17T05:04:59.520Z,15.69
2022-10-17T05:10:01.635Z,15.72
2022-10-17T05:15:05.381Z,15.87
2022-10-17T05:20:11.176Z,15.88
2022-10-17T05:25:13.806Z,15.73
2022-10-17T05:30:16.024Z,15.82
2022-10-17T05:35:18.204Z,15.77
2022-10-17T05:40:21.732Z,15.71
2022-10-17T05:45:24.128Z,15.53
2022-10-17T05:50:26.019Z,15.64
2022-10-17T05:55:40.873Z,15.59
2022-10-17T06:00:42.796Z,15.40
2022-10-17T06:05:45.808Z,15.50
2022-10-17T06:10:50.834Z,15.44
2022-10-17T06:15:52.953Z,15.41
2022-10-17T06:20:55.073Z,15.36
2022-10-17T06:26:01.476Z,15.35
2022-10-17T06:31:08.968Z,15.30
2022-10-17T06:36:13.790Z,15.36
2022-10-17T06:41:18.730Z,15.36
2022-10-17T06:46:21.244Z,15.40
2022-10-17T06:51:35.618Z,15.44
2022-10-17T06:56:38.371Z,15.40
2022-10-17T07:01:54.149Z,15.51
2022-10-17T07:12:08.558Z,15.61
2022-10-17T07:17:10.907Z,15.66
2022-10-17T07:22:13.712Z,15.62
2022-10-17T07:27:19.268Z,15.76
2022-10-17T07:32:22.247Z,15.63
2022-10-17T07:37:24.234Z,15.79
2022-10-17T07:42:30.287Z,15.85
2022-10-17T07:47:35.889Z,16.16
2022-10-17T07:52:39.990Z,16.35
2022-10-17T07:57:41.810Z,16.44
2022-10-17T08:02:43.885Z,16.36
2022-10-17T08:07:45.711Z,16.25
2022-10-17T08:12:47.679Z,16.16
2022-10-17T08:17:49.783Z,16.14
2022-10-17T08:22:53.394Z,16.14
2022-10-17T08:27:55.329Z,16.18
2022-10-17T08:32:57.390Z,16.29
2022-10-17T08:38:01.805Z,16.28
2022-10-17T08:43:23.953Z,16.32
2022-10-17T08:48:27.707Z,16.12
2022-10-17T08:53:40.431Z,16.56
2022-10-17T08:58:42.232Z,17.18
2022-10-17T09:04:08.724Z,17.24
2022-10-17T09:09:22.633Z,17.36
2022-10-17T09:14:38.453Z,17.32
2022-10-17T09:19:44.514Z,18.33
2022-10-17T09:24:58.748Z,18.35
2022-10-17T09:30:26.905Z,18.49
2022-10-17T09:35:38.465Z,18.51
2022-10-17T09:40:41.375Z,18.33
2022-10-17T09:46:08.557Z,18.21
2022-10-17T09:51:15.154Z,18.22
2022-10-17T09:56:27.238Z,18.26
2022-10-17T10:01:31.345Z,18.45
2022-10-17T10:06:33.219Z,18.35
2022-10-17T10:11:51.943Z,18.53
2022-10-17T10:16:53.919Z,18.52
2022-10-17T10:21:58.192Z,18.77
2022-10-17T10:27:02.787Z,19.68
2022-10-17T10:32:16.303Z,19.83
2022-10-17T10:37:27.290Z,20.76
2022-10-17T10:42:40.012Z,20.78
2022-10-17T10:48:03.964Z,21.59
2022-10-17T10:53:15.208Z,22.00
2022-10-17T10:58:42.080Z,22.02
2022-10-17T11:04:22.991Z,21.29
2022-10-17T11:09:45.603Z,21.08
2022-10-17T11:14:59.827Z,21.14
2022-10-17T11:20:29.534Z,20.94
2022-10-17T11:25:34.793Z,21.01
2022-10-17T11:35:53.859Z,21.11
2022-10-17T11:40:58.866Z,21.09
2022-10-17T11:46:24.826Z,21.09
2022-10-17T11:57:19.325Z,21.15
2022-10-17T12:02:50.466Z,21.13
2022-10-17T12:07:55.386Z,21.16
2022-10-17T12:12:57.316Z,21.09
2022-10-17T12:18:02.710Z,21.12
2022-10-17T12:23:13.381Z,21.22
2022-10-17T12:28:28.110Z,21.48
2022-10-17T12:33:36.084Z,21.52
2022-10-17T12:38:38.108Z,21.38
2022-10-17T12:43:54.144Z,21.55
2022-10-17T12:49:01.304Z,21.73
2022-10-17T12:54:12.826Z,21.85
2022-10-17T12:59:43.426Z,22.05
2022-10-17T13:04:45.799Z,22.00
2022-10-17T13:09:48.316Z,22.06
2022-10-17T13:14:51.885Z,22.15
2022-10-17T13:19:54.391Z,22.27
2022-10-17T13:25:14.451Z,22.28
2022-10-17T13:30:27.940Z,22.19
2022-10-17T13:41:30.047Z,22.63
2022-10-17T13:46:39.488Z,22.71
2022-10-17T13:51:47.032Z,22.75
2022-10-17T13:56:57.259Z,22.72
2022-10-17T14:02:01.704Z,22.81
2022-10-17T14:07:03.797Z,22.67
2022-10-17T14:13:24.962Z,22.78
2022-10-17T14:18:36.178Z,22.83
2022-10-17T14:23:42.348Z,23.02
2022-10-17T14:28:47.425Z,23.13
2022-10-17T14:33:51.141Z,23.45
2022-10-17T14:38:53.546Z,23.47
2022-10-17T14:44:04.901Z,23.18
2022-10-17T14:49:08.971Z,23.37
2022-10-17T14:54:20.350Z,23.48
2022-10-17T14:59:52.331Z,23.35
2022-10-17T15:04:49.026Z,23.56
2022-10-17T15:09:52.791Z,23.67
2022-10-17T15:14:54.950Z,23.68
2022-10-17T15:19:57.521Z,23.61
2022-10-17T15:24:59.458Z,23.84
2022-10-17T15:30:01.348Z,23.83
2022-10-17T15:35:03.291Z,23.86
2022-10-17T15:40:06.358Z,23.77
2022-10-17T15:45:11.116Z,23.82
2022-10-17T15:50:17.914Z,23.61
2022-10-17T15:55:21.678Z,23.54
2022-10-17T16:00:24.839Z,23.54
2022-10-17T16:05:27.157Z,23.47
2022-10-17T16:10:29.217Z,23.38
2022-10-17T16:15:31.138Z,23.39
2022-10-17T16:20:33.085Z,23.23
2022-10-17T16:25:35.206Z,23.18
2022-10-17T16:30:46.423Z,22.97
2022-10-17T16:35:49.427Z,22.58
2022-10-17T16:40:51.489Z,22.68
2022-10-17T16:45:53.332Z,22.50
2022-10-17T16:50:55.220Z,22.28
2022-10-17T16:56:04.597Z,22.21
2022-10-17T17:01:11.694Z,22.06
2022-10-17T17:06:16.195Z,22.01
2022-10-17T17:11:19.651Z,22.00
2022-10-17T17:16:22.890Z,21.90
2022-10-17T17:21:25.016Z,21.66
2022-10-17T17:26:29.149Z,21.45
2022-10-17T17:31:32.914Z,21.57
2022-10-17T17:36:36.712Z,21.53
2022-10-17T17:41:39.879Z,21.39
2022-10-17T17:46:43.776Z,21.19
2022-10-17T17:51:46.736Z,21.29
2022-10-17T17:56:48.742Z,21.27
2022-10-17T18:01:50.575Z,21.10
2022-10-17T18:06:52.515Z,21.02
2022-10-17T18:11:54.369Z,20.93
2022-10-17T18:16:56.273Z,20.89
2022-10-17T18:21:59.219Z,20.82
2022-10-17T18:27:01.414Z,20.77
2022-10-17T18:32:04.193Z,20.47
2022-10-17T18:37:06.178Z,20.40
2022-10-17T18:42:09.137Z,20.49
2022-10-17T18:47:11.411Z,20.42
2022-10-17T18:52:13.304Z,20.32
2022-10-17T18:57:17.161Z,20.23
2022-10-17T19:02:19.088Z,20.17
2022-10-17T19:07:20.996Z,20.10
2022-10-17T19:12:22.879Z,20.01
2022-10-17T19:17:25.253Z,19.99
2022-10-17T19:22:28.484Z,19.94
2022-10-17T19:27:30.600Z,19.86
2022-10-17T19:32:33.185Z,19.78
2022-10-17T19:37:35.962Z,19.78
2022-10-17T19:42:37.939Z,19.72
2022-10-17T19:47:40.152Z,19.63
2022-10-17T19:52:42.140Z,19.53
2022-10-17T19:57:44.187Z,19.38
2022-10-17T20:02:46.219Z,19.41
2022-10-17T20:07:48.312Z,19.36
2022-10-17T20:13:15.712Z,19.27
2022-10-17T20:18:17.757Z,19.20
2022-10-17T20:23:19.977Z,19.09
2022-10-17T20:28:21.955Z,19.02
2022-10-17T20:33:27.311Z,18.92
2022-10-17T20:38:33.211Z,18.70
2022-10-17T20:43:35.684Z,18.84
2022-10-17T20:48:38.060Z,18.80
2022-10-17T20:53:39.998Z,18.64
2022-10-17T20:58:42.096Z,18.66
2022-10-17T21:03:46.557Z,18.60
2022-10-17T21:09:52.624Z,18.57
2022-10-17T21:14:54.528Z,18.33
2022-10-17T21:19:56.639Z,18.45
2022-10-17T21:24:58.608Z,18.46
2022-10-17T21:30:00.679Z,18.42
2022-10-17T21:35:02.607Z,18.34
2022-10-17T21:40:05.274Z,18.30
2022-10-17T21:45:15.042Z,18.19
2022-10-17T21:50:18.026Z,18.11
2022-10-17T21:55:20.080Z,18.07
2022-10-17T22:00:22.398Z,18.02
2022-10-17T22:05:24.372Z,17.99
2022-10-17T22:10:26.861Z,17.99
2022-10-17T22:15:29.744Z,18.00
2022-10-17T22:20:34.205Z,17.95
2022-10-17T22:25:36.195Z,17.95
2022-10-17T22:30:38.154Z,17.91
2022-10-17T22:35:40.071Z,17.90
2022-10-17T22:40:45.027Z,17.78
2022-10-17T22:45:59.178Z,17.69
2022-10-17T22:51:02.249Z,17.69
2022-10-17T22:56:07.388Z,17.64
2022-10-17T23:01:13.402Z,17.61
2022-10-17T23:06:15.651Z,17.60
2022-10-17T23:11:17.962Z,17.44
2022-10-17T23:16:19.741Z,17.52
2022-10-17T23:21:21.685Z,17.46
2022-10-17T23:26:23.631Z,17.40
2022-10-17T23:31:25.655Z,17.41
2022-10-17T23:36:27.785Z,17.35
2022-10-17T23:41:29.609Z,17.30
2022-10-17T23:46:31.673Z,17.17
2022-10-17T23:51:33.929Z,16.86
2022-10-17T23:56:35.831Z,17.04
